createdAt,value
2022-09-28T00:00:22.283Z,92.41
2022-09-28T00:01:22.308Z,93.55
2022-09-28T00:02:22.352Z,94.60
2022-09-28T00:03:22.234Z,93.57
2022-09-28T00:04:22.212Z,95.06
2022-09-28T00:05:22.226Z,95.99
2022-09-28T00:06:22.203Z,96.38
2022-09-28T00:07:22.181Z,96.43
2022-09-28T00:08:22.167Z,97.67
2022-09-28T00:09:22.144Z,98.94
2022-09-28T00:10:22.132Z,99.58
2022-09-28T00:11:22.144Z,100.54
2022-09-28T00:12:22.181Z,100.30
2022-09-28T00:13:22.111Z,101.64
2022-09-28T00:14:22.111Z,102.38
2022-09-28T00:15:22.087Z,103.78
2022-09-28T00:16:22.138Z,104.62
2022-09-28T00:17:22.036Z,105.41
2022-09-28T00:18:22.026Z,105.88
2022-09-28T00:19:22.040Z,105.48
2022-09-28T00:20:22.001Z,105.48
2022-09-28T00:21:22.053Z,104.23
2022-09-28T00:22:21.983Z,105.01
2022-09-28T00:23:21.959Z,104.23
2022-09-28T00:24:26.633Z,104.75
2022-09-28T00:25:21.999Z,104.75
2022-09-28T00:26:21.926Z,105.21
2022-09-28T00:27:21.901Z,106.01
2022-09-28T00:28:21.925Z,106.75
2022-09-28T00:29:21.884Z,106.69
2022-09-28T00:30:21.878Z,107.17
2022-09-28T00:31:21.932Z,106.96
2022-09-28T00:32:21.840Z,106.08
2022-09-28T00:33:21.835Z,105.68
2022-09-28T00:34:22.704Z,106.42
2022-09-28T00:35:21.799Z,106.42
2022-09-28T00:36:21.829Z,107.23
2022-09-28T00:37:21.820Z,107.23
2022-09-28T00:38:21.821Z,107.93
2022-09-28T00:39:21.770Z,108.06
2022-09-28T00:40:21.828Z,109.12
2022-09-28T00:41:21.759Z,110.63
2022-09-28T00:42:21.738Z,110.49
2022-09-28T00:43:21.723Z,112.26
2022-09-28T00:44:21.698Z,113.25
2022-09-28T00:45:21.673Z,113.79
2022-09-28T00:46:21.656Z,115.12
2022-09-28T00:47:21.664Z,114.88
2022-09-28T00:48:21.679Z,114.96
2022-09-28T00:49:21.649Z,114.88
2022-09-28T00:50:21.621Z,115.44
2022-09-28T00:51:21.625Z,116.89
2022-09-28T00:52:21.621Z,116.00
2022-09-28T00:53:21.575Z,116.48
2022-09-28T00:54:21.577Z,116.32
2022-09-28T00:55:21.554Z,115.60
2022-09-28T00:56:21.546Z,116.08
2022-09-28T00:57:21.557Z,116.81
2022-09-28T00:58:21.538Z,117.54
2022-09-28T00:59:21.497Z,116.72
2022-09-28T01:00:21.506Z,117.79
2022-09-28T01:01:21.520Z,117.30
2022-09-28T01:02:21.559Z,118.21
2022-09-28T01:03:21.471Z,118.12
2022-09-28T01:04:21.474Z,117.13
2022-09-28T01:05:21.435Z,117.38
2022-09-28T01:06:21.398Z,117.38
2022-09-28T01:07:21.408Z,116.81
2022-09-28T01:08:21.381Z,117.38
2022-09-28T01:09:21.354Z,116.48
2022-09-28T01:10:21.414Z,116.81
2022-09-28T01:11:21.419Z,117.05
2022-09-28T01:12:21.338Z,117.30
2022-09-28T01:13:21.364Z,116.89
2022-09-28T01:14:21.338Z,115.60
2022-09-28T01:15:21.280Z,114.65
2022-09-28T01:16:21.311Z,113.94
2022-09-28T01:17:21.304Z,113.40
2022-09-28T01:18:21.266Z,112.72
2022-09-28T01:19:21.396Z,111.74
2022-09-28T01:20:21.239Z,111.37
2022-09-28T01:21:21.230Z,111.00
2022-09-28T01:22:21.242Z,109.84
2022-09-28T01:23:21.211Z,109.26
2022-09-28T01:24:21.228Z,107.65
2022-09-28T01:25:21.179Z,108.55
2022-09-28T01:26:21.152Z,107.17
2022-09-28T01:27:21.144Z,107.86
2022-09-28T01:28:21.124Z,108.69
2022-09-28T01:29:21.124Z,108.34
2022-09-28T01:30:21.105Z,107.99
2022-09-28T01:31:21.197Z,107.10
2022-09-28T01:32:21.144Z,107.17
2022-09-28T01:33:21.121Z,106.89
2022-09-28T01:34:21.111Z,106.48
2022-09-28T01:35:21.073Z,105.28
2022-09-28T01:36:21.018Z,104.62
2022-09-28T01:37:21.042Z,103.71
2022-09-28T01:38:20.982Z,103.84
2022-09-28T01:39:20.989Z,102.76
2022-09-28T01:40:21.002Z,102.32
2022-09-28T01:41:20.961Z,102.38
2022-09-28T01:42:20.964Z,102.38
2022-09-28T01:43:20.940Z,101.33
2022-09-28T01:44:20.910Z,100.78
2022-09-28T01:45:20.928Z,101.27
2022-09-28T01:46:20.988Z,101.82
2022-09-28T01:47:20.898Z,101.95
2022-09-28T01:48:20.846Z,102.70
2022-09-28T01:49:20.873Z,103.39
2022-09-28T01:50:20.865Z,102.45
2022-09-28T01:51:20.835Z,103.27
2022-09-28T01:52:20.788Z,102.70
2022-09-28T01:53:20.826Z,103.14
2022-09-28T01:54:20.779Z,102.51
2022-09-28T01:55:20.765Z,102.51
2022-09-28T01:56:20.829Z,103.20
2022-09-28T01:57:20.752Z,103.65
2022-09-28T01:58:20.743Z,103.39
2022-09-28T01:59:20.783Z,103.71
2022-09-28T02:00:20.691Z,103.01
2022-09-28T02:01:20.742Z,102.76
2022-09-28T02:02:20.835Z,102.82
2022-09-28T02:03:20.667Z,102.20
2022-09-28T02:04:20.654Z,102.76
2022-09-28T02:05:20.635Z,102.13
2022-09-28T02:06:20.627Z,101.15
2022-09-28T02:07:20.618Z,101.27
2022-09-28T02:08:20.594Z,101.51
2022-09-28T02:09:20.591Z,100.30
2022-09-28T02:10:20.583Z,99.52
2022-09-28T02:11:20.564Z,98.47
2022-09-28T02:12:20.589Z,97.67
2022-09-28T02:13:20.556Z,97.21
2022-09-28T02:14:20.506Z,97.16
2022-09-28T02:15:20.546Z,94.90
2022-09-28T02:16:20.553Z,94.90
2022-09-28T02:17:20.471Z,94.10
2022-09-28T02:18:20.495Z,93.84
2022-09-28T02:19:20.469Z,93.78
2022-09-28T02:20:20.435Z,95.36
2022-09-28T02:21:20.431Z,95.57
2022-09-28T02:22:20.398Z,94.82
2022-09-28T02:23:20.403Z,94.18
2022-09-28T02:24:21.658Z,94.07
2022-09-28T02:25:20.370Z,94.39
2022-09-28T02:26:20.340Z,95.03
2022-09-28T02:27:20.392Z,95.25
2022-09-28T02:28:20.359Z,95.14
2022-09-28T02:29:20.332Z,95.03
2022-09-28T02:30:20.312Z,94.60
2022-09-28T02:31:20.323Z,94.71
2022-09-28T02:32:20.311Z,94.39
2022-09-28T02:33:20.259Z,94.07
2022-09-28T02:34:20.271Z,94.07
2022-09-28T02:35:20.247Z,94.28
2022-09-28T02:36:20.217Z,94.39
2022-09-28T02:37:20.227Z,93.75
2022-09-28T02:38:20.216Z,93.13
2022-09-28T02:39:20.190Z,92.72
2022-09-28T02:40:20.224Z,92.51
2022-09-28T02:41:20.179Z,91.70
2022-09-28T02:42:20.153Z,91.20
2022-09-28T02:43:20.142Z,90.51
2022-09-28T02:44:20.133Z,91.00
2022-09-28T02:45:20.169Z,90.12
2022-09-28T02:46:20.192Z,89.74
2022-09-28T02:47:20.104Z,89.26
2022-09-28T02:48:35.949Z,89.64
2022-09-28T02:49:22.313Z,89.54
2022-09-28T02:50:20.045Z,89.54
2022-09-28T02:51:20.054Z,89.45
2022-09-28T02:52:20.042Z,89.93
2022-09-28T02:53:20.021Z,89.16
2022-09-28T02:54:20.022Z,89.64
2022-09-28T02:55:19.999Z,89.35
2022-09-28T02:56:19.954Z,88.60
2022-09-28T02:57:19.991Z,88.50
2022-09-28T02:58:19.938Z,89.26
2022-09-28T02:59:19.932Z,88.97
2022-09-28T03:00:19.917Z,88.88
2022-09-28T03:01:19.985Z,88.60
2022-09-28T03:02:20.000Z,87.85
2022-09-28T03:03:19.863Z,87.58
2022-09-28T03:04:19.851Z,87.12
2022-09-28T03:05:19.856Z,86.76
2022-09-28T03:06:19.828Z,86.85
2022-09-28T03:07:19.822Z,86.58
2022-09-28T03:08:19.820Z,86.58
2022-09-28T03:09:19.801Z,86.85
2022-09-28T03:10:19.789Z,87.40
2022-09-28T03:11:19.779Z,87.21
2022-09-28T03:12:19.743Z,87.67
2022-09-28T03:13:19.738Z,87.67
2022-09-28T03:14:19.732Z,88.13
2022-09-28T03:15:19.705Z,88.41
2022-09-28T03:16:19.797Z,88.32
2022-09-28T03:17:19.715Z,88.79
2022-09-28T03:18:19.683Z,89.45
2022-09-28T03:19:19.658Z,89.45
2022-09-28T03:20:19.663Z,89.83
2022-09-28T03:21:19.643Z,90.12
2022-09-28T03:22:19.685Z,90.42
2022-09-28T03:23:24.679Z,90.12
2022-09-28T03:24:19.609Z,90.81
2022-09-28T03:25:19.612Z,90.81
2022-09-28T03:26:19.584Z,91.10
2022-09-28T03:27:19.721Z,91.20
2022-09-28T03:28:19.555Z,91.30
2022-09-28T03:29:19.526Z,91.90
2022-09-28T03:30:19.516Z,91.50
2022-09-28T03:31:19.607Z,91.60
2022-09-28T03:32:19.509Z,91.70
2022-09-28T03:33:19.493Z,92.72
2022-09-28T03:34:19.464Z,92.41
2022-09-28T03:35:19.465Z,92.82
2022-09-28T03:36:19.453Z,92.11
2022-09-28T03:37:19.447Z,91.40
2022-09-28T03:38:19.439Z,90.51
2022-09-28T03:39:19.408Z,89.74
2022-09-28T03:40:19.418Z,89.26
2022-09-28T03:41:19.397Z,90.22
2022-09-28T03:42:19.356Z,89.64
2022-09-28T03:43:19.389Z,89.74
2022-09-28T03:44:19.353Z,90.32
2022-09-28T03:45:19.338Z,89.45
2022-09-28T03:46:19.447Z,89.74
2022-09-28T03:47:19.314Z,89.74
2022-09-28T03:48:23.939Z,89.35
2022-09-28T03:49:19.276Z,88.97
2022-09-28T03:50:19.305Z,89.16
2022-09-28T03:51:19.258Z,87.67
2022-09-28T03:52:19.237Z,86.94
2022-09-28T03:53:19.228Z,85.09
2022-09-28T03:54:19.196Z,84.15
2022-09-28T03:55:19.204Z,83.06
2022-09-28T03:56:19.182Z,81.92
2022-09-28T03:57:19.163Z,81.21
2022-09-28T03:58:19.143Z,80.82
2022-09-28T03:59:19.162Z,80.74
2022-09-28T04:00:19.130Z,80.28
2022-09-28T04:01:19.216Z,79.29
2022-09-28T04:02:19.186Z,78.99
2022-09-28T04:03:19.105Z,78.69
2022-09-28T04:04:19.078Z,78.76
2022-09-28T04:05:19.066Z,78.69
2022-09-28T04:06:19.060Z,79.29
2022-09-28T04:07:19.050Z,78.54
2022-09-28T04:08:19.028Z,77.89
2022-09-28T04:09:19.021Z,77.31
2022-09-28T04:10:19.008Z,76.39
2022-09-28T04:11:18.982Z,75.91
2022-09-28T04:12:18.985Z,75.64
2022-09-28T04:13:18.975Z,75.23
2022-09-28T04:14:18.952Z,74.49
2022-09-28T04:15:18.925Z,74.29
2022-09-28T04:16:18.993Z,74.10
2022-09-28T04:17:18.909Z,73.90
2022-09-28T04:18:18.882Z,73.06
2022-09-28T04:19:18.935Z,72.68
2022-09-28T04:20:18.865Z,72.12
2022-09-28T04:21:18.879Z,71.87
2022-09-28T04:22:18.842Z,71.26
2022-09-28T04:23:18.842Z,71.20
2022-09-28T04:24:18.815Z,70.84
2022-09-28T04:25:18.827Z,70.24
2022-09-28T04:26:18.793Z,69.95
2022-09-28T04:27:18.797Z,69.78
2022-09-28T04:28:18.773Z,70.07
2022-09-28T04:29:19.099Z,70.18
2022-09-28T04:30:18.740Z,70.66
2022-09-28T04:31:18.828Z,70.18
2022-09-28T04:32:18.731Z,69.78
2022-09-28T04:33:18.693Z,70.07
2022-09-28T04:34:18.673Z,70.42
2022-09-28T04:35:18.666Z,70.24
2022-09-28T04:36:18.667Z,70.78
2022-09-28T04:37:18.635Z,71.44
2022-09-28T04:38:35.667Z,71.38
2022-09-28T04:39:18.799Z,71.26
2022-09-28T04:40:18.665Z,71.50
2022-09-28T04:41:18.597Z,71.50
2022-09-28T04:42:18.571Z,72.31
2022-09-28T04:43:18.576Z,72.18
2022-09-28T04:44:18.587Z,72.49
2022-09-28T04:45:18.558Z,72.31
2022-09-28T04:46:18.567Z,72.75
2022-09-28T04:47:18.526Z,72.62
2022-09-28T04:48:18.489Z,73.51
2022-09-28T04:49:18.688Z,73.45
2022-09-28T04:50:18.463Z,73.71
2022-09-28T04:51:18.497Z,73.64
2022-09-28T04:52:18.810Z,73.57
2022-09-28T04:53:18.459Z,73.64
2022-09-28T04:54:18.470Z,73.96
2022-09-28T04:55:18.424Z,74.76
2022-09-28T04:56:18.419Z,75.03
2022-09-28T04:57:18.377Z,75.84
2022-09-28T04:58:18.380Z,76.32
2022-09-28T04:59:18.572Z,76.67
2022-09-28T05:00:18.344Z,77.03
2022-09-28T05:01:18.425Z,77.31
2022-09-28T05:02:18.385Z,77.89
2022-09-28T05:03:18.312Z,78.54
2022-09-28T05:04:21.297Z,78.84
2022-09-28T05:05:18.305Z,78.91
2022-09-28T05:06:18.257Z,79.14
2022-09-28T05:07:18.263Z,79.14
2022-09-28T05:08:18.233Z,78.76
2022-09-28T05:09:18.400Z,78.47
2022-09-28T05:10:18.328Z,77.96
2022-09-28T05:11:18.204Z,77.24
2022-09-28T05:12:18.192Z,77.17
2022-09-28T05:13:18.176Z,76.89
2022-09-28T05:14:18.175Z,76.89
2022-09-28T05:15:18.141Z,76.74
2022-09-28T05:16:18.169Z,76.32
2022-09-28T05:17:18.154Z,76.19
2022-09-28T05:18:18.125Z,76.19
2022-09-28T05:19:18.206Z,76.12
2022-09-28T05:20:18.140Z,75.57
2022-09-28T05:21:18.072Z,75.29
2022-09-28T05:22:18.075Z,75.23
2022-09-28T05:23:18.062Z,74.69
2022-09-28T05:24:18.055Z,74.89
2022-09-28T05:25:18.005Z,75.23
2022-09-28T05:26:18.005Z,75.43
2022-09-28T05:27:17.999Z,75.50
2022-09-28T05:28:18.003Z,75.57
2022-09-28T05:29:18.122Z,75.77
2022-09-28T05:30:17.970Z,76.25
2022-09-28T05:31:18.037Z,76.60
2022-09-28T05:32:17.951Z,77.03
2022-09-28T05:33:17.904Z,77.45
2022-09-28T05:34:17.952Z,77.81
2022-09-28T05:35:17.900Z,77.53
2022-09-28T05:36:17.865Z,77.89
2022-09-28T05:37:17.853Z,78.18
2022-09-28T05:38:17.868Z,78.62
2022-09-28T05:39:18.057Z,78.54
2022-09-28T05:40:17.882Z,78.32
2022-09-28T05:41:17.813Z,78.40
2022-09-28T05:42:17.805Z,78.40
2022-09-28T05:43:17.812Z,78.03
2022-09-28T05:44:17.912Z,77.89
2022-09-28T05:45:17.765Z,77.89
2022-09-28T05:46:17.845Z,77.53
2022-09-28T05:47:17.727Z,77.53
2022-09-28T05:48:17.730Z,77.89
2022-09-28T05:49:17.716Z,77.96
2022-09-28T05:50:17.694Z,78.40
2022-09-28T05:51:17.666Z,78.76
2022-09-28T05:52:17.681Z,78.69
2022-09-28T05:53:17.654Z,79.29
2022-09-28T05:54:17.940Z,78.84
2022-09-28T05:55:17.613Z,79.14
2022-09-28T05:56:17.649Z,79.51
2022-09-28T05:57:17.651Z,79.74
2022-09-28T05:58:17.595Z,80.35
2022-09-28T05:59:17.589Z,80.43
2022-09-28T06:00:17.564Z,81.13
2022-09-28T06:01:17.666Z,81.37
2022-09-28T06:02:17.656Z,81.92
2022-09-28T06:03:17.597Z,82.65
2022-09-28T06:04:17.667Z,82.98
2022-09-28T06:05:17.490Z,83.39
2022-09-28T06:06:17.496Z,83.48
2022-09-28T06:07:17.494Z,83.48
2022-09-28T06:08:17.501Z,83.06
2022-09-28T06:09:17.509Z,83.39
2022-09-28T06:10:17.437Z,82.98
2022-09-28T06:11:17.437Z,83.56
2022-09-28T06:12:17.484Z,83.31
2022-09-28T06:13:17.434Z,82.98
2022-09-28T06:14:17.457Z,82.33
2022-09-28T06:15:17.454Z,82.73
2022-09-28T06:16:17.447Z,83.48
2022-09-28T06:17:17.332Z,83.73
2022-09-28T06:18:17.321Z,84.40
2022-09-28T06:19:17.342Z,85.26
2022-09-28T06:20:17.340Z,85.52
2022-09-28T06:21:17.293Z,86.14
2022-09-28T06:22:17.284Z,87.31
2022-09-28T06:23:17.259Z,87.95
2022-09-28T06:24:17.409Z,89.26
2022-09-28T06:25:17.248Z,89.83
2022-09-28T06:26:17.250Z,91.00
2022-09-28T06:27:17.211Z,91.80
2022-09-28T06:28:17.225Z,92.51
2022-09-28T06:29:19.437Z,93.23
2022-09-28T06:30:17.206Z,94.50
2022-09-28T06:31:17.336Z,95.25
2022-09-28T06:32:17.161Z,93.78
2022-09-28T06:33:17.136Z,94.15
2022-09-28T06:34:17.246Z,95.01
2022-09-28T06:35:17.159Z,94.95
2022-09-28T06:36:17.136Z,96.49
2022-09-28T06:37:17.130Z,96.54
2022-09-28T06:38:17.118Z,98.36
2022-09-28T06:39:17.074Z,99.29
2022-09-28T06:40:17.141Z,99.58
2022-09-28T06:41:17.041Z,99.35
2022-09-28T06:42:17.096Z,100.06
2022-09-28T06:43:17.016Z,101.03
2022-09-28T06:44:17.157Z,101.15
2022-09-28T06:45:16.997Z,102.38
2022-09-28T06:46:17.062Z,102.38
2022-09-28T06:47:17.020Z,102.57
2022-09-28T06:48:17.490Z,103.78
2022-09-28T06:49:19.602Z,105.61
2022-09-28T06:50:16.923Z,106.82
2022-09-28T06:51:17.441Z,107.99
2022-09-28T06:52:16.910Z,108.48
2022-09-28T06:53:16.854Z,109.76
2022-09-28T06:54:17.066Z,111.89
2022-09-28T06:55:16.828Z,114.49
2022-09-28T06:56:16.869Z,115.84
2022-09-28T06:57:16.810Z,117.79
2022-09-28T06:58:16.824Z,118.29
2022-09-28T06:59:16.806Z,119.05
2022-09-28T07:00:16.784Z,121.11
2022-09-28T07:01:16.863Z,122.08
2022-09-28T07:02:16.833Z,124.91
2022-09-28T07:03:16.748Z,126.99
2022-09-28T07:04:16.864Z,127.86
2022-09-28T07:05:16.758Z,127.86
2022-09-28T07:06:16.723Z,129.34
2022-09-28T07:07:16.696Z,130.15
2022-09-28T07:08:16.666Z,130.35
2022-09-28T07:09:31.870Z,132.10
2022-09-28T07:10:16.685Z,134.21
2022-09-28T07:11:16.645Z,136.29
2022-09-28T07:12:16.629Z,137.29
2022-09-28T07:13:36.622Z,137.29
2022-09-28T07:14:31.674Z,139.35
2022-09-28T07:15:16.598Z,140.28
2022-09-28T07:16:16.654Z,141.11
2022-09-28T07:17:16.620Z,141.59
2022-09-28T07:18:16.610Z,141.71
2022-09-28T07:19:16.590Z,140.87
2022-09-28T07:20:19.443Z,142.55
2022-09-28T07:21:28.098Z,144.90
2022-09-28T07:22:19.299Z,146.80
2022-09-28T07:23:19.587Z,149.82
2022-09-28T07:24:16.480Z,150.90
2022-09-28T07:25:16.461Z,154.52
2022-09-28T07:26:19.631Z,157.13
2022-09-28T07:27:16.488Z,161.06
2022-09-28T07:28:16.433Z,163.26
2022-09-28T07:29:16.412Z,165.35
2022-09-28T07:30:16.407Z,167.00
2022-09-28T07:31:16.439Z,166.83
2022-09-28T07:32:16.362Z,166.17
2022-09-28T07:33:16.363Z,166.17
2022-09-28T07:34:16.368Z,166.67
2022-09-28T07:35:16.333Z,169.71
2022-09-28T07:36:16.318Z,168.51
2022-09-28T07:37:16.313Z,168.00
2022-09-28T07:38:16.273Z,171.62
2022-09-28T07:39:16.249Z,174.84
2022-09-28T07:40:16.309Z,175.03
2022-09-28T07:41:16.221Z,180.88
2022-09-28T07:42:16.227Z,182.86
2022-09-28T07:43:16.232Z,184.96
2022-09-28T07:44:16.241Z,185.90
2022-09-28T07:45:16.179Z,185.48
2022-09-28T07:46:16.257Z,184.07
2022-09-28T07:47:16.157Z,186.52
2022-09-28T07:48:16.179Z,186.74
2022-09-28T07:49:16.153Z,184.47
2022-09-28T07:50:16.147Z,187.28
2022-09-28T07:51:16.119Z,191.75
2022-09-28T07:52:16.140Z,196.90
2022-09-28T07:53:16.125Z,207.19
2022-09-28T07:54:16.105Z,224.41
2022-09-28T07:55:16.076Z,234.48
2022-09-28T07:56:16.088Z,247.14
2022-09-28T07:57:16.016Z,265.90
2022-09-28T07:58:16.060Z,274.09
2022-09-28T07:59:15.988Z,280.15
2022-09-28T08:00:16.010Z,285.00
2022-09-28T08:01:15.993Z,287.49
2022-09-28T08:02:16.008Z,291.56
2022-09-28T08:03:15.963Z,300.61
2022-09-28T08:04:15.946Z,304.22
2022-09-28T08:05:15.905Z,306.20
2022-09-28T08:06:15.920Z,314.98
2022-09-28T08:07:17.130Z,324.29
2022-09-28T08:08:15.876Z,324.92
2022-09-28T08:09:15.908Z,335.86
2022-09-28T08:10:15.873Z,341.08
2022-09-28T08:11:15.866Z,354.67
2022-09-28T08:12:15.848Z,355.82
2022-09-28T08:13:15.817Z,367.33
2022-09-28T08:14:15.847Z,390.05
2022-09-28T08:15:15.792Z,412.91
2022-09-28T08:16:15.881Z,423.89
2022-09-28T08:17:15.803Z,436.33
2022-09-28T08:18:15.779Z,450.42
2022-09-28T08:19:15.828Z,474.03
2022-09-28T08:20:15.726Z,505.54
2022-09-28T08:21:15.714Z,523.32
2022-09-28T08:22:15.723Z,532.48
2022-09-28T08:23:15.689Z,540.22
2022-09-28T08:24:15.713Z,547.28
2022-09-28T08:25:15.719Z,547.73
2022-09-28T08:26:15.843Z,543.73
2022-09-28T08:27:15.615Z,536.75
2022-09-28T08:28:15.633Z,536.32
2022-09-28T08:29:15.601Z,540.22
2022-09-28T08:30:15.604Z,532.91
2022-09-28T08:31:15.621Z,528.70
2022-09-28T08:32:15.581Z,508.61
2022-09-28T08:33:15.563Z,502.88
2022-09-28T08:34:15.591Z,512.90
2022-09-28T08:35:15.524Z,528.70
2022-09-28T08:36:15.540Z,553.16
2022-09-28T08:37:15.641Z,563.41
2022-09-28T08:38:15.495Z,570.61
2022-09-28T08:39:15.449Z,574.53
2022-09-28T08:40:15.729Z,577.51
2022-09-28T08:41:15.467Z,592.33
2022-09-28T08:42:15.456Z,607.93
2022-09-28T08:43:15.431Z,617.46
2022-09-28T08:44:15.538Z,637.46
2022-09-28T08:45:15.401Z,651.73
2022-09-28T08:46:15.524Z,689.32
2022-09-28T08:47:15.497Z,717.40
2022-09-28T08:48:15.594Z,731.51
2022-09-28T08:49:30.757Z,732.31
2022-09-28T08:50:15.378Z,738.78
2022-09-28T08:51:16.120Z,748.18
2022-09-28T08:52:15.357Z,773.22
2022-09-28T08:53:15.286Z,766.59
2022-09-28T08:54:15.350Z,776.36
2022-09-28T08:55:15.261Z,794.31
2022-09-28T08:56:15.262Z,804.80
2022-09-28T08:57:15.228Z,814.09
2022-09-28T08:58:15.218Z,799.52
2022-09-28T08:59:15.202Z,790.09
2022-09-28T09:00:15.185Z,767.91
2022-09-28T09:01:15.232Z,749.44
2022-09-28T09:02:15.436Z,718.94
2022-09-28T09:03:15.155Z,687.20
2022-09-28T09:04:15.148Z,676.78
2022-09-28T09:05:15.134Z,660.74
2022-09-28T09:06:18.335Z,658.14
2022-09-28T09:07:15.107Z,647.32
2022-09-28T09:08:15.081Z,634.44
2022-09-28T09:09:15.071Z,618.60
2022-09-28T09:10:15.061Z,604.09
2022-09-28T09:11:15.064Z,599.76
2022-09-28T09:12:15.032Z,605.18
2022-09-28T09:13:15.000Z,614.63
2022-09-28T09:14:15.080Z,613.50
2022-09-28T09:15:14.996Z,617.46
2022-09-28T09:16:15.007Z,610.70
2022-09-28T09:17:15.032Z,626.13
2022-09-28T09:18:17.821Z,651.73
2022-09-28T09:19:14.919Z,672.02
2022-09-28T09:20:14.910Z,682.99
2022-09-28T09:21:14.896Z,692.89
2022-09-28T09:22:14.923Z,700.14
2022-09-28T09:23:14.919Z,717.40
2022-09-28T09:24:14.908Z,719.71
2022-09-28T09:25:14.839Z,746.19
2022-09-28T09:26:17.051Z,740.41
2022-09-28T09:27:14.841Z,764.40
2022-09-28T09:28:14.817Z,799.05
2022-09-28T09:29:14.817Z,859.53
2022-09-28T09:30:17.939Z,913.43
2022-09-28T09:31:14.844Z,974.54
2022-09-28T09:32:14.797Z,1003.74
2022-09-28T09:33:14.806Z,1050.98
2022-09-28T09:34:14.927Z,1101.07
2022-09-28T09:35:14.733Z,1149.23
2022-09-28T09:36:14.705Z,1172.35
2022-09-28T09:37:14.721Z,1181.66
2022-09-28T09:38:14.692Z,1176.47
2022-09-28T09:39:14.669Z,1175.44
2022-09-28T09:40:14.686Z,1211.57
2022-09-28T09:41:14.813Z,1223.74
2022-09-28T09:42:14.611Z,1218.18
2022-09-28T09:43:14.629Z,1228.23
2022-09-28T09:44:14.683Z,1267.74
2022-09-28T09:45:14.578Z,1295.94
2022-09-28T09:46:14.668Z,1271.35
2022-09-28T09:47:14.568Z,1262.96
2022-09-28T09:48:14.691Z,1233.89
2022-09-28T09:49:14.571Z,1200.72
2022-09-28T09:50:14.555Z,1173.38
2022-09-28T09:51:14.504Z,1171.33
2022-09-28T09:52:14.486Z,1148.24
2022-09-28T09:53:14.470Z,1127.95
2022-09-28T09:54:14.552Z,1110.19
2022-09-28T09:55:14.458Z,1086.78
2022-09-28T09:56:14.425Z,1087.66
2022-09-28T09:57:14.445Z,1083.27
2022-09-28T09:58:14.405Z,1076.31
2022-09-28T09:59:14.430Z,1082.39
2022-09-28T10:00:14.627Z,1085.02
2022-09-28T10:01:14.472Z,1099.26
2022-09-28T10:02:14.449Z,1115.74
2022-09-28T10:03:14.551Z,1120.40
2022-09-28T10:04:14.336Z,1120.40
2022-09-28T10:05:14.664Z,1128.90
2022-09-28T10:06:14.654Z,1121.34
2022-09-28T10:07:14.700Z,1125.10
2022-09-28T10:08:14.407Z,1138.49
2022-09-28T10:09:14.475Z,1151.20
2022-09-28T10:10:14.621Z,1186.89
2022-09-28T10:11:14.680Z,1208.30
2022-09-28T10:12:14.464Z,1240.74
2022-09-28T10:13:14.598Z,1247.67
2022-09-28T10:14:14.292Z,1231.62
2022-09-28T10:15:14.234Z,1198.57
2022-09-28T10:16:14.505Z,1162.19
2022-09-28T10:17:14.587Z,1127.00
2022-09-28T10:18:14.196Z,1097.46
2022-09-28T10:19:14.569Z,1086.78
2022-09-28T10:20:14.525Z,1065.18
2022-09-28T10:21:14.257Z,1066.03
2022-09-28T10:22:14.131Z,1065.18
2022-09-28T10:23:14.141Z,1066.88
2022-09-28T10:24:14.306Z,1052.63
2022-09-28T10:25:14.160Z,1033.15
2022-09-28T10:26:14.141Z,1015.15
2022-09-28T10:27:14.285Z,988.20
2022-09-28T10:28:14.289Z,972.42
2022-09-28T10:29:14.260Z,954.41
2022-09-28T10:30:14.230Z,946.33
2022-09-28T10:31:14.236Z,939.03
2022-09-28T10:32:14.312Z,923.50
2022-09-28T10:33:14.307Z,923.50
2022-09-28T10:34:14.269Z,920.96
2022-09-28T10:35:14.100Z,917.81
2022-09-28T10:36:14.176Z,910.95
2022-09-28T10:37:14.199Z,902.36
2022-09-28T10:38:14.232Z,905.41
2022-09-28T10:39:14.244Z,903.57
2022-09-28T10:40:14.801Z,892.14
2022-09-28T10:41:14.274Z,882.74
2022-09-28T10:42:14.330Z,864.52
2022-09-28T10:43:14.229Z,843.30
2022-09-28T10:44:14.184Z,828.70
2022-09-28T10:45:14.268Z,813.60
2022-09-28T10:46:13.989Z,800.96
2022-09-28T10:47:13.800Z,799.05
2022-09-28T10:48:13.834Z,800.48
2022-09-28T10:49:13.746Z,783.62
2022-09-28T10:50:13.725Z,790.09
2022-09-28T10:51:13.695Z,791.49
2022-09-28T10:52:13.692Z,779.07
2022-09-28T10:53:13.703Z,769.23
2022-09-28T10:54:13.848Z,766.15
2022-09-28T10:55:13.735Z,757.49
2022-09-28T10:56:13.649Z,742.88
2022-09-28T10:57:13.793Z,727.53
2022-09-28T10:58:13.768Z,695.05
2022-09-28T10:59:13.606Z,675.41
2022-09-28T11:00:13.612Z,664.02
2022-09-28T11:01:13.776Z,649.84
2022-09-28T11:02:13.789Z,647.95
2022-09-28T11:03:14.514Z,646.07
2022-09-28T11:04:13.750Z,644.21
2022-09-28T11:05:13.678Z,630.85
2022-09-28T11:06:13.737Z,625.54
2022-09-28T11:07:15.380Z,635.64
2022-09-28T11:08:13.769Z,641.73
2022-09-28T11:09:13.775Z,624.96
2022-09-28T11:10:13.872Z,612.94
2022-09-28T11:11:13.705Z,615.76
2022-09-28T11:12:13.720Z,604.09
2022-09-28T11:13:13.639Z,605.73
2022-09-28T11:14:13.704Z,609.04
2022-09-28T11:15:13.600Z,609.59
2022-09-28T11:16:13.504Z,603.00
2022-09-28T11:17:13.460Z,597.62
2022-09-28T11:18:13.539Z,582.03
2022-09-28T11:19:13.328Z,569.64
2022-09-28T11:20:13.337Z,555.00
2022-09-28T11:21:13.356Z,545.06
2022-09-28T11:22:14.070Z,524.14
2022-09-28T11:23:13.326Z,505.54
2022-09-28T11:24:18.036Z,480.49
2022-09-28T11:25:13.276Z,475.04
2022-09-28T11:26:18.459Z,453.78
2022-09-28T11:27:13.287Z,445.63
2022-09-28T11:28:13.248Z,430.99
2022-09-28T11:29:13.290Z,420.70
2022-09-28T11:30:13.193Z,407.14
2022-09-28T11:31:13.236Z,392.80
2022-09-28T11:32:15.842Z,369.39
2022-09-28T11:33:13.935Z,350.52
2022-09-28T11:34:13.229Z,341.79
2022-09-28T11:35:13.229Z,340.02
2022-09-28T11:36:13.173Z,329.15
2022-09-28T11:37:13.133Z,312.29
2022-09-28T11:38:13.080Z,300.88
2022-09-28T11:39:13.114Z,296.81
2022-09-28T11:40:13.066Z,285.00
2022-09-28T11:41:13.047Z,275.69
2022-09-28T11:42:16.256Z,277.79
2022-09-28T11:43:15.771Z,277.32
2022-09-28T11:44:13.041Z,271.60
2022-09-28T11:45:13.042Z,267.20
2022-09-28T11:46:13.059Z,272.27
2022-09-28T11:47:12.970Z,272.73
2022-09-28T11:48:12.998Z,272.05
2022-09-28T11:49:12.982Z,274.55
2022-09-28T11:50:12.982Z,275.00
2022-09-28T11:51:12.948Z,275.46
2022-09-28T11:52:12.964Z,270.26
2022-09-28T11:53:12.970Z,266.98
2022-09-28T11:54:13.025Z,264.41
2022-09-28T11:55:13.013Z,262.93
2022-09-28T11:56:13.030Z,250.72
2022-09-28T11:57:12.887Z,244.94
2022-09-28T11:58:13.446Z,238.03
2022-09-28T11:59:12.967Z,233.81
2022-09-28T12:00:12.934Z,227.98
2022-09-28T12:01:17.992Z,226.73
2022-09-28T12:02:13.115Z,234.48
2022-09-28T12:03:12.940Z,233.64
2022-09-28T12:04:13.059Z,232.65
2022-09-28T12:05:14.905Z,228.30
2022-09-28T12:06:13.003Z,218.02
2022-09-28T12:07:13.070Z,208.10
2022-09-28T12:08:12.911Z,208.10
2022-09-28T12:09:12.789Z,205.51
2022-09-28T12:10:12.777Z,206.28
2022-09-28T12:11:13.371Z,215.88
2022-09-28T12:12:12.640Z,225.49
2022-09-28T12:13:12.674Z,228.77
2022-09-28T12:14:12.643Z,230.54
2022-09-28T12:15:12.616Z,232.16
2022-09-28T12:16:32.815Z,232.00
2022-09-28T12:17:16.488Z,235.15
2022-09-28T12:18:12.643Z,239.94
2022-09-28T12:19:12.584Z,242.95
2022-09-28T12:20:12.548Z,244.03
2022-09-28T12:21:12.521Z,243.85
2022-09-28T12:22:12.523Z,238.72
2022-09-28T12:23:12.504Z,235.82
2022-09-28T12:24:12.495Z,234.31
2022-09-28T12:25:12.528Z,237.18
2022-09-28T12:26:12.466Z,237.01
2022-09-28T12:27:12.452Z,235.31
2022-09-28T12:28:12.545Z,230.70
2022-09-28T12:29:12.406Z,223.19
2022-09-28T12:30:12.420Z,218.02
2022-09-28T12:31:12.470Z,212.95
2022-09-28T12:32:12.391Z,208.10
2022-09-28T12:33:12.426Z,211.17
2022-09-28T12:34:12.346Z,210.63
2022-09-28T12:35:12.324Z,208.76